createdAt,value
2022-08-03T00:04:06.907Z,2.60
2022-08-03T00:09:00.308Z,2.80
2022-08-03T00:13:54.515Z,2.58
2022-08-03T00:18:47.796Z,2.55
2022-08-03T00:23:51.138Z,2.30
2022-08-03T00:28:45.626Z,2.20
2022-08-03T00:33:59.073Z,2.60
2022-08-03T00:38:52.732Z,2.47
2022-08-03T00:43:47.965Z,2.67
2022-08-03T00:48:41.751Z,2.85
2022-08-03T00:53:40.885Z,2.97
2022-08-03T00:58:33.972Z,2.70
2022-08-03T01:03:32.024Z,2.60
2022-08-03T01:08:40.854Z,2.47
2022-08-03T01:19:21.973Z,2.83
2022-08-03T01:24:29.786Z,2.70
2022-08-03T01:29:46.695Z,3.00
2022-08-03T01:34:49.691Z,3.00
2022-08-03T01:39:50.580Z,2.85
2022-08-03T01:44:46.361Z,2.80
2022-08-03T01:49:46.174Z,3.28
2022-08-03T01:54:44.240Z,2.78
2022-08-03T01:59:38.207Z,2.60
2022-08-03T02:04:32.355Z,3.03
2022-08-03T02:09:26.812Z,3.08
2022-08-03T02:14:21.273Z,2.70
2022-08-03T02:19:15.220Z,3.08
2022-08-03T02:24:10.326Z,2.92
2022-08-03T02:29:08.856Z,2.85
2022-08-03T02:34:08.373Z,3.10
2022-08-03T02:39:03.279Z,3.00
2022-08-03T02:44:05.711Z,2.90
2022-08-03T02:49:40.462Z,3.15
2022-08-03T02:54:17.977Z,7.90
2022-08-03T02:59:12.003Z,8.45
2022-08-03T03:04:07.373Z,8.18
2022-08-03T03:09:03.555Z,7.38
2022-08-03T03:13:58.218Z,6.95
2022-08-03T03:18:51.795Z,8.10
2022-08-03T03:23:46.257Z,7.80
2022-08-03T03:28:40.315Z,6.43
2022-08-03T03:33:35.444Z,6.95
2022-08-03T03:38:29.533Z,6.57
2022-08-03T03:43:24.255Z,6.60
2022-08-03T03:48:17.910Z,7.20
2022-08-03T03:53:13.332Z,7.32
2022-08-03T03:58:07.577Z,7.25
2022-08-03T04:03:01.045Z,7.30
2022-08-03T04:08:18.551Z,7.22
2022-08-03T04:13:13.429Z,6.60
2022-08-03T04:18:12.884Z,5.40
2022-08-03T04:23:14.222Z,5.28
2022-08-03T04:28:31.386Z,5.00
2022-08-03T04:33:29.561Z,5.53
2022-08-03T04:38:26.549Z,5.90
2022-08-03T04:43:19.905Z,6.28
2022-08-03T04:48:15.383Z,6.68
2022-08-03T04:53:08.576Z,5.05
2022-08-03T04:58:03.867Z,5.55
2022-08-03T05:02:57.782Z,5.93
2022-08-03T05:07:51.287Z,5.70
2022-08-03T05:12:45.574Z,4.60
2022-08-03T05:17:39.261Z,5.28
2022-08-03T05:22:32.230Z,5.60
2022-08-03T05:27:25.396Z,4.88
2022-08-03T05:32:19.187Z,5.40
2022-08-03T05:37:14.099Z,4.60
2022-08-03T05:42:07.971Z,4.60
2022-08-03T05:47:01.675Z,4.45
2022-08-03T05:52:00.466Z,4.55
2022-08-03T05:57:08.060Z,4.65
2022-08-03T06:02:02.062Z,4.85
2022-08-03T06:06:56.505Z,3.50
2022-08-03T06:11:50.644Z,3.83
2022-08-03T06:16:45.113Z,3.95
2022-08-03T06:21:39.873Z,3.72
2022-08-03T06:26:34.739Z,4.45
2022-08-03T06:31:32.721Z,3.85
2022-08-03T06:36:31.618Z,3.80
2022-08-03T06:41:26.648Z,3.65
2022-08-03T06:46:21.756Z,4.25
2022-08-03T06:51:16.057Z,4.80
2022-08-03T06:56:09.885Z,3.72
2022-08-03T07:01:04.431Z,3.72
2022-08-03T07:05:59.220Z,3.80
2022-08-03T07:10:54.847Z,3.42
2022-08-03T07:15:55.509Z,3.45
2022-08-03T07:20:50.666Z,4.78
2022-08-03T07:25:45.217Z,3.40
2022-08-03T07:30:39.191Z,3.85
2022-08-03T07:35:32.667Z,4.18
2022-08-03T07:40:31.541Z,3.60
2022-08-03T07:45:26.990Z,3.30
2022-08-03T07:50:24.622Z,4.70
2022-08-03T07:55:18.681Z,3.40
2022-08-03T08:00:19.350Z,4.25
2022-08-03T08:05:12.682Z,4.20
2022-08-03T08:10:11.766Z,4.38
2022-08-03T08:15:07.479Z,4.20
2022-08-03T08:20:01.263Z,4.70
2022-08-03T08:24:54.814Z,3.60
2022-08-03T08:29:54.598Z,2.70
2022-08-03T08:34:55.099Z,3.20
2022-08-03T08:39:49.118Z,3.22
2022-08-03T08:44:43.272Z,4.22
2022-08-03T08:49:53.432Z,3.10
2022-08-03T08:55:00.097Z,3.78
2022-08-03T08:59:57.512Z,2.55
2022-08-03T09:04:51.545Z,2.00
2022-08-03T09:10:04.649Z,2.75
2022-08-03T09:15:15.844Z,2.22
2022-08-03T09:20:11.388Z,2.80
2022-08-03T09:25:25.867Z,2.10
2022-08-03T09:30:34.561Z,1.73
2022-08-03T09:35:53.539Z,2.55
2022-08-03T09:40:44.085Z,1.60
2022-08-03T09:45:41.682Z,2.65
2022-08-03T09:50:57.026Z,2.70
2022-08-03T09:56:34.190Z,1.10
2022-08-03T10:01:25.280Z,1.35
2022-08-03T10:06:20.437Z,1.90
2022-08-03T10:11:14.428Z,1.17
2022-08-03T10:16:23.486Z,0.90
2022-08-03T10:21:20.951Z,1.40
2022-08-03T10:26:18.196Z,1.02
2022-08-03T10:31:12.638Z,1.60
2022-08-03T10:36:07.575Z,1.23
2022-08-03T10:41:02.661Z,1.27
2022-08-03T10:45:57.149Z,1.33
2022-08-03T10:50:50.742Z,1.13
2022-08-03T10:56:05.627Z,1.27
2022-08-03T11:00:59.338Z,1.30
2022-08-03T11:05:54.540Z,1.23
2022-08-03T11:10:49.236Z,1.40
2022-08-03T11:15:46.723Z,1.10
2022-08-03T11:20:47.113Z,0.98
2022-08-03T11:26:20.381Z,1.02
2022-08-03T11:31:47.219Z,1.55
2022-08-03T11:37:12.728Z,0.70
2022-08-03T11:42:27.453Z,1.05
2022-08-03T11:47:21.604Z,0.90
2022-08-03T11:52:15.537Z,0.80
2022-08-03T11:57:09.742Z,0.90
2022-08-03T12:02:27.224Z,1.00
2022-08-03T12:08:04.259Z,0.63
2022-08-03T12:12:34.643Z,0.88
2022-08-03T12:17:39.127Z,0.80
2022-08-03T12:22:53.086Z,0.70
2022-08-03T12:27:46.589Z,1.15
2022-08-03T12:32:40.727Z,0.70
2022-08-03T12:37:35.961Z,0.60
2022-08-03T12:42:38.204Z,0.60
2022-08-03T12:47:53.118Z,0.55
2022-08-03T12:52:46.745Z,1.00
2022-08-03T12:57:42.723Z,0.50
2022-08-03T13:02:36.778Z,1.10
2022-08-03T13:07:47.807Z,0.60
2022-08-03T13:12:50.571Z,0.80
2022-08-03T13:17:43.767Z,0.80
2022-08-03T13:22:37.788Z,0.80
2022-08-03T13:28:03.094Z,0.82
2022-08-03T13:32:49.274Z,0.70
2022-08-03T13:37:44.570Z,0.70
2022-08-03T13:42:42.873Z,1.42
2022-08-03T13:47:37.908Z,0.85
2022-08-03T13:52:32.752Z,1.20
2022-08-03T13:58:05.417Z,0.98
2022-08-03T14:02:39.476Z,0.80
2022-08-03T14:07:33.570Z,2.13
2022-08-03T14:12:28.023Z,1.00
2022-08-03T14:17:23.291Z,1.90
2022-08-03T14:22:17.474Z,1.05
2022-08-03T14:27:12.164Z,1.55
2022-08-03T14:32:12.095Z,1.13
2022-08-03T14:37:07.251Z,1.13
2022-08-03T14:42:01.364Z,0.90
2022-08-03T14:46:59.226Z,1.08
2022-08-03T14:51:57.713Z,1.13
2022-08-03T14:56:56.542Z,1.17
2022-08-03T15:02:04.568Z,1.40
2022-08-03T15:07:06.356Z,1.13
2022-08-03T15:11:59.885Z,1.25
2022-08-03T15:16:57.549Z,1.15
2022-08-03T15:21:53.489Z,0.90
2022-08-03T15:26:52.142Z,1.10
2022-08-03T15:31:50.778Z,1.25
2022-08-03T15:36:47.553Z,1.10
2022-08-03T15:41:42.282Z,1.33
2022-08-03T15:46:37.357Z,1.30
2022-08-03T15:51:35.838Z,1.10
2022-08-03T15:56:31.948Z,1.75
2022-08-03T16:01:30.213Z,1.30
2022-08-03T16:06:35.535Z,2.45
2022-08-03T16:11:38.079Z,1.10
2022-08-03T16:16:43.962Z,1.20
2022-08-03T16:21:47.993Z,1.20
2022-08-03T16:26:49.724Z,1.08
2022-08-03T16:31:51.772Z,1.10
2022-08-03T16:36:53.871Z,1.00
2022-08-03T16:42:00.996Z,1.35
2022-08-03T16:47:00.632Z,1.35
2022-08-03T16:52:00.321Z,1.67
2022-08-03T16:57:01.765Z,1.50
2022-08-03T17:02:04.353Z,1.55
2022-08-03T17:07:08.838Z,0.88
2022-08-03T17:12:10.903Z,1.33
2022-08-03T17:17:18.435Z,1.25
2022-08-03T17:22:22.410Z,1.15
2022-08-03T17:28:48.531Z,1.30
2022-08-03T17:32:52.451Z,1.60
2022-08-03T17:38:03.709Z,1.30
2022-08-03T17:44:12.901Z,1.15
2022-08-03T17:48:27.288Z,1.52
2022-08-03T17:53:29.521Z,1.80
2022-08-03T17:59:08.379Z,1.30
2022-08-03T18:04:11.131Z,1.60
2022-08-03T18:10:06.246Z,1.33
2022-08-03T18:14:57.895Z,1.40
2022-08-03T18:20:11.621Z,1.30
2022-08-03T18:25:45.606Z,1.58
2022-08-03T18:30:54.729Z,1.73
2022-08-03T18:41:12.723Z,1.90
2022-08-03T18:46:22.407Z,1.90
2022-08-03T18:51:28.562Z,1.50
2022-08-03T18:56:50.030Z,2.03
2022-08-03T19:02:00.208Z,1.17
2022-08-03T19:07:05.017Z,1.20
2022-08-03T19:12:30.963Z,1.60
2022-08-03T19:17:31.428Z,3.17
2022-08-03T19:22:28.016Z,1.77
2022-08-03T19:27:27.055Z,1.50
2022-08-03T19:32:22.457Z,1.77
2022-08-03T19:37:16.139Z,1.42
2022-08-03T19:42:20.021Z,1.63
2022-08-03T19:47:47.096Z,1.90
2022-08-03T19:52:42.804Z,3.08
2022-08-03T19:57:38.294Z,2.08
2022-08-03T20:02:33.592Z,1.63
2022-08-03T20:07:29.366Z,1.70
2022-08-03T20:12:27.551Z,1.95
2022-08-03T20:17:21.714Z,1.70
2022-08-03T20:22:15.142Z,2.78
2022-08-03T20:27:13.164Z,2.22
2022-08-03T20:32:11.577Z,1.63
2022-08-03T20:37:05.556Z,2.00
2022-08-03T20:42:05.591Z,2.10
2022-08-03T20:47:00.714Z,1.55
2022-08-03T20:51:54.484Z,2.20
2022-08-03T20:56:49.610Z,2.40
2022-08-03T21:01:44.333Z,2.17
2022-08-03T21:06:53.109Z,3.10
2022-08-03T21:11:53.029Z,2.47
2022-08-03T21:12:58.523Z,1.75
2022-08-03T21:16:50.913Z,2.40
2022-08-03T21:21:46.280Z,2.65
2022-08-03T21:26:41.094Z,2.50
2022-08-03T21:31:35.261Z,2.75
2022-08-03T21:36:32.961Z,2.15
2022-08-03T21:41:30.237Z,2.72
2022-08-03T21:46:25.440Z,2.63
2022-08-03T21:51:20.994Z,2.83
2022-08-03T21:56:18.718Z,2.45
2022-08-03T22:01:14.680Z,2.25
2022-08-03T22:06:09.385Z,2.28
2022-08-03T22:11:14.631Z,3.10
2022-08-03T22:16:10.261Z,2.30
2022-08-03T22:21:04.723Z,2.55
2022-08-03T22:26:01.077Z,2.33
2022-08-03T22:30:55.349Z,2.33
2022-08-03T22:35:51.688Z,2.50
2022-08-03T22:40:45.424Z,2.25
2022-08-03T22:46:06.206Z,2.45
2022-08-03T22:50:52.758Z,2.10
2022-08-03T22:55:50.297Z,2.60
2022-08-03T23:01:09.946Z,2.00
2022-08-03T23:06:04.062Z,2.20
2022-08-03T23:11:12.686Z,2.38
2022-08-03T23:16:07.475Z,2.08
2022-08-03T23:21:05.964Z,2.28
2022-08-03T23:26:05.685Z,2.20
2022-08-03T23:30:59.955Z,2.40
2022-08-03T23:36:27.785Z,2.22
2022-08-03T23:41:13.300Z,2.13
2022-08-03T23:46:08.407Z,1.98
2022-08-03T23:51:05.593Z,2.40
2022-08-03T23:56:32.031Z,2.13
